Ipapadi II — SW2289 — position and weather

sailwx.info

Track history (hours):
 
Tides and Currents Weather Stations Pressure Air Temp Water Temp Dewpoint Dewpoint Depression Visibility Wind Speed Wind Dir Waves Ship Positions

Ipapadi II

Last reported at 2018-Apr-11 10:39 UTC. Time now 2018-Apr-24 18:34 UTC.
Position N 37°48' E 023°45'.
Warning: this ship's position is 13 days out of date.

Length 22 m; draft 2.2 m.

Type: Fishing. MMSI: 239131000.

Date/timePositionNaut miles runAvg speedWind from/ knotsBaromVisibWave heightAir tempDewpointWater temp
2018-Apr-11 10:39N 37°48' E 023°45'2 9.1
2018-Apr-11 10:29N 37°50' E 023°43'4 9.1
2018-Apr-11 10:00N 37°53' E 023°40'4 8.8
2018-Apr-11 09:30N 37°56' E 023°36'1 2.1
2018-Apr-11 09:00N 37°57' E 023°37'0 0.0
2018-Apr-11 08:30N 37°57' E 023°37'0 0.0
2018-Apr-11 08:00N 37°57' E 023°37'0 0.0
2018-Apr-11 07:29N 37°57' E 023°37'0 0.0
2018-Apr-11 07:00N 37°57' E 023°37'0 0.0
2018-Apr-11 06:30N 37°57' E 023°37'0 0.0
2018-Apr-11 06:00N 37°57' E 023°37'0 0.0
2018-Apr-11 05:30N 37°57' E 023°37'0 0.0
2018-Apr-11 05:00N 37°57' E 023°37'0 0.0
2018-Apr-11 04:30N 37°57' E 023°37'2 4.6
2018-Apr-11 04:00N 37°56' E 023°34'6 0.6
2018-Apr-10 17:21N 37°50' E 023°35'3 8.2
2018-Apr-10 17:00N 37°53' E 023°35'4 7.7
2018-Apr-10 16:30N 37°57' E 023°36'1 2.1
2018-Apr-10 16:00N 37°57' E 023°37'0 0.0
2018-Apr-10 15:30N 37°57' E 023°37'0 0.0
2018-Apr-10 15:00N 37°57' E 023°37'0 0.0
2018-Apr-10 14:30N 37°57' E 023°37'0 0.0
2018-Apr-10 14:00N 37°57' E 023°37'0 0.0
2018-Apr-10 13:30N 37°57' E 023°37'0 0.0
2018-Apr-10 13:00N 37°57' E 023°37'0 0.0
2018-Apr-10 12:30N 37°57' E 023°37'0 0.0
2018-Apr-10 12:00N 37°57' E 023°37'0 0.0
2018-Apr-10 11:29N 37°57' E 023°37'0 0.0
2018-Apr-10 11:00N 37°57' E 023°37'0 0.0
2018-Apr-10 10:30N 37°57' E 023°37'0 0.0
2018-Apr-10 10:00N 37°57' E 023°37'0 0.0
2018-Apr-10 09:30N 37°57' E 023°37'0 0.0
2018-Apr-10 09:00N 37°57' E 023°37'0 0.0
2018-Apr-10 08:30N 37°57' E 023°37'0 0.0
2018-Apr-10 08:00N 37°57' E 023°37'0 0.0
2018-Apr-10 07:30N 37°57' E 023°37'0 0.0
2018-Apr-10 07:00N 37°57' E 023°37'0 0.0
2018-Apr-10 06:30N 37°57' E 023°37'0 0.0
2018-Apr-10 06:00N 37°57' E 023°37'0 0.0
2018-Apr-10 05:30N 37°57' E 023°37'0 0.0
2018-Apr-10 05:00N 37°57' E 023°37'1 2.4
2018-Apr-10 04:30N 37°57' E 023°36'6 0.6
2018-Apr-09 18:35N 37°52' E 023°41'0 5.0
2018-Apr-09 18:30N 37°52' E 023°41'0 0.1
2018-Apr-09 18:00N 37°52' E 023°41'0 0.2
2018-Apr-09 17:30N 37°52' E 023°41'1 2.2
2018-Apr-09 17:00N 37°54' E 023°41'3 6.3
2018-Apr-09 16:30N 37°55' E 023°37'2 4.1
2018-Apr-09 16:00N 37°57' E 023°37'  
2018-Apr-04 06:02N 37°57' E 023°37'1 1.7
2018-Apr-04 05:39N 37°57' E 023°36'1 8.2
2018-Apr-04 05:30N 37°56' E 023°35'4 8.8
2018-Apr-04 05:01N 37°54' E 023°31'5 9.0
2018-Apr-04 04:28N 37°51' E 023°25'8 0.8
2018-Apr-03 18:36N 37°49' E 023°35'1 8.2
2018-Apr-03 18:30N 37°50' E 023°35'4 8.4
2018-Apr-03 18:00N 37°54' E 023°35'3 6.9
2018-Apr-03 17:31N 37°57' E 023°37'0 0.1
2018-Apr-03 16:58N 37°57' E 023°37'0 0.0
2018-Apr-03 16:30N 37°57' E 023°37'0 0.0
2018-Apr-03 16:00N 37°57' E 023°37'0 0.0
2018-Apr-03 15:30N 37°57' E 023°37'0 0.0
2018-Apr-03 15:00N 37°57' E 023°37'0 0.0
2018-Apr-03 14:30N 37°57' E 023°37'0 0.0
2018-Apr-03 14:00N 37°57' E 023°37'0 0.0
2018-Apr-03 13:30N 37°57' E 023°37'0 0.0
2018-Apr-03 13:01N 37°57' E 023°37'0 0.0
2018-Apr-03 12:30N 37°57' E 023°37'0 0.0
2018-Apr-03 12:00N 37°57' E 023°37'0 0.0
2018-Apr-03 11:30N 37°57' E 023°37'0 0.0
2018-Apr-03 11:00N 37°57' E 023°37'0 0.0
2018-Apr-03 10:30N 37°57' E 023°37'0 0.0
2018-Apr-03 10:00N 37°57' E 023°37'0 0.0
2018-Apr-03 09:30N 37°57' E 023°37'0 0.0
2018-Apr-03 08:59N 37°57' E 023°37'0 0.0
2018-Apr-03 08:30N 37°57' E 023°37'0 0.0
2018-Apr-03 08:00N 37°57' E 023°37'0 0.0
2018-Apr-03 07:31N 37°57' E 023°37'0 0.0
2018-Apr-03 07:00N 37°57' E 023°37'0 0.0
2018-Apr-03 06:30N 37°57' E 023°37'0 0.0
2018-Apr-03 06:00N 37°57' E 023°37'0 0.0
2018-Apr-03 05:30N 37°57' E 023°37'0 0.0
2018-Apr-03 05:00N 37°57' E 023°37'0 0.0
2018-Apr-03 04:30N 37°57' E 023°37'3 5.4
2018-Apr-03 04:00N 37°56' E 023°34'4 0.4
2018-Apr-02 17:41N 37°52' E 023°33'1 8.1
2018-Apr-02 17:31N 37°53' E 023°34'4 7.8
2018-Apr-02 17:00N 37°57' E 023°36'1 0.1
2018-Apr-02 07:24N 37°57' E 023°37'0 0.0
2018-Apr-02 07:00N 37°57' E 023°37'0 0.0
2018-Apr-02 06:30N 37°57' E 023°37'0 0.0
2018-Apr-02 06:00N 37°57' E 023°37'0 0.0
2018-Apr-02 05:30N 37°57' E 023°37'0 0.0
2018-Apr-02 05:00N 37°57' E 023°37'0 0.0
2018-Apr-02 04:30N 37°57' E 023°37'0 0.0
2018-Apr-02 04:00N 37°57' E 023°37'0 0.0
2018-Apr-02 03:30N 37°57' E 023°37'0 0.0
2018-Apr-02 03:00N 37°57' E 023°37'0 0.0
2018-Apr-02 02:30N 37°57' E 023°37'0 0.0
2018-Apr-02 02:00N 37°57' E 023°37'0 0.0
2018-Apr-02 01:30N 37°57' E 023°37'0 0.0
2018-Apr-02 01:00N 37°57' E 023°37'0 0.0
2018-Apr-02 00:30N 37°57' E 023°37'0 0.0
2018-Apr-02 00:00N 37°57' E 023°37'0 0.0
2018-Apr-01 23:30N 37°57' E 023°37'0 0.0
2018-Apr-01 23:00N 37°57' E 023°37'0 0.0
2018-Apr-01 22:30N 37°57' E 023°37'0 0.0
2018-Apr-01 22:00N 37°57' E 023°37'0 0.0
2018-Apr-01 21:30N 37°57' E 023°37'0 0.0
2018-Apr-01 21:00N 37°57' E 023°37'0 0.0
2018-Apr-01 20:30N 37°57' E 023°37'0 0.0
2018-Apr-01 20:00N 37°57' E 023°37'0 0.0
2018-Apr-01 19:30N 37°57' E 023°37'0 0.0
2018-Apr-01 19:00N 37°57' E 023°37'0 0.0
2018-Apr-01 18:30N 37°57' E 023°37'0 0.0
2018-Apr-01 18:00N 37°57' E 023°37'0 0.0
2018-Apr-01 17:30N 37°57' E 023°37'0 0.0
2018-Apr-01 17:00N 37°57' E 023°37'0 0.0
2018-Apr-01 16:30N 37°57' E 023°37'0 0.0
2018-Apr-01 16:00N 37°57' E 023°37'0 0.0
2018-Apr-01 15:30N 37°57' E 023°37'0 0.0
2018-Apr-01 15:00N 37°57' E 023°37'0 0.0
2018-Apr-01 14:30N 37°57' E 023°37'0 0.0
2018-Apr-01 14:00N 37°57' E 023°37'0 0.0
2018-Apr-01 13:30N 37°57' E 023°37'0 0.0
2018-Apr-01 13:00N 37°57' E 023°37'0 0.0
2018-Apr-01 12:30N 37°57' E 023°37'0 0.0
2018-Apr-01 12:00N 37°57' E 023°37'0 0.0
2018-Apr-01 11:30N 37°57' E 023°37'0 0.0
2018-Apr-01 11:00N 37°57' E 023°37'  
Track history (hours):
 
Tides and Currents Weather Stations Pressure Air Temp Water Temp Dewpoint Dewpoint Depression Visibility Wind Speed Wind Dir Waves Ship Positions

Ipapadi II

Last reported at 2018-Apr-11 10:39 UTC. Time now 2018-Apr-24 18:34 UTC.
Position N 37°48' E 023°45'.
Warning: this ship's position is 13 days out of date.

Length 22 m; draft 2.2 m.

Type: Fishing. MMSI: 239131000.

Date/timePositionNaut miles runAvg speedWind from/ knotsBaromVisibWave heightAir tempDewpointWater temp
2018-Apr-11 10:39N 37°48' E 023°45'2 9.1
2018-Apr-11 10:29N 37°50' E 023°43'4 9.1
2018-Apr-11 10:00N 37°53' E 023°40'4 8.8
2018-Apr-11 09:30N 37°56' E 023°36'1 2.1
2018-Apr-11 09:00N 37°57' E 023°37'0 0.0
2018-Apr-11 08:30N 37°57' E 023°37'0 0.0
2018-Apr-11 08:00N 37°57' E 023°37'0 0.0
2018-Apr-11 07:29N 37°57' E 023°37'0 0.0
2018-Apr-11 07:00N 37°57' E 023°37'0 0.0
2018-Apr-11 06:30N 37°57' E 023°37'0 0.0
2018-Apr-11 06:00N 37°57' E 023°37'0 0.0
2018-Apr-11 05:30N 37°57' E 023°37'0 0.0
2018-Apr-11 05:00N 37°57' E 023°37'0 0.0
2018-Apr-11 04:30N 37°57' E 023°37'2 4.6
2018-Apr-11 04:00N 37°56' E 023°34'6 0.6
2018-Apr-10 17:21N 37°50' E 023°35'3 8.2
2018-Apr-10 17:00N 37°53' E 023°35'4 7.7
2018-Apr-10 16:30N 37°57' E 023°36'1 2.1
2018-Apr-10 16:00N 37°57' E 023°37'0 0.0
2018-Apr-10 15:30N 37°57' E 023°37'0 0.0
2018-Apr-10 15:00N 37°57' E 023°37'0 0.0
2018-Apr-10 14:30N 37°57' E 023°37'0 0.0
2018-Apr-10 14:00N 37°57' E 023°37'0 0.0
2018-Apr-10 13:30N 37°57' E 023°37'0 0.0
2018-Apr-10 13:00N 37°57' E 023°37'0 0.0
2018-Apr-10 12:30N 37°57' E 023°37'0 0.0
2018-Apr-10 12:00N 37°57' E 023°37'0 0.0
2018-Apr-10 11:29N 37°57' E 023°37'0 0.0
2018-Apr-10 11:00N 37°57' E 023°37'0 0.0
2018-Apr-10 10:30N 37°57' E 023°37'0 0.0
2018-Apr-10 10:00N 37°57' E 023°37'0 0.0
2018-Apr-10 09:30N 37°57' E 023°37'0 0.0
2018-Apr-10 09:00N 37°57' E 023°37'0 0.0
2018-Apr-10 08:30N 37°57' E 023°37'0 0.0
2018-Apr-10 08:00N 37°57' E 023°37'0 0.0
2018-Apr-10 07:30N 37°57' E 023°37'0 0.0
2018-Apr-10 07:00N 37°57' E 023°37'0 0.0
2018-Apr-10 06:30N 37°57' E 023°37'0 0.0
2018-Apr-10 06:00N 37°57' E 023°37'0 0.0
2018-Apr-10 05:30N 37°57' E 023°37'0 0.0
2018-Apr-10 05:00N 37°57' E 023°37'1 2.4
2018-Apr-10 04:30N 37°57' E 023°36'6 0.6
2018-Apr-09 18:35N 37°52' E 023°41'0 5.0
2018-Apr-09 18:30N 37°52' E 023°41'0 0.1
2018-Apr-09 18:00N 37°52' E 023°41'0 0.2
2018-Apr-09 17:30N 37°52' E 023°41'1 2.2
2018-Apr-09 17:00N 37°54' E 023°41'3 6.3
2018-Apr-09 16:30N 37°55' E 023°37'2 4.1
2018-Apr-09 16:00N 37°57' E 023°37'  
2018-Apr-04 06:02N 37°57' E 023°37'1 1.7
2018-Apr-04 05:39N 37°57' E 023°36'1 8.2
2018-Apr-04 05:30N 37°56' E 023°35'4 8.8
2018-Apr-04 05:01N 37°54' E 023°31'5 9.0
2018-Apr-04 04:28N 37°51' E 023°25'8 0.8
2018-Apr-03 18:36N 37°49' E 023°35'1 8.2
2018-Apr-03 18:30N 37°50' E 023°35'4 8.4
2018-Apr-03 18:00N 37°54' E 023°35'3 6.9
2018-Apr-03 17:31N 37°57' E 023°37'0 0.1
2018-Apr-03 16:58N 37°57' E 023°37'0 0.0
2018-Apr-03 16:30N 37°57' E 023°37'0 0.0
2018-Apr-03 16:00N 37°57' E 023°37'0 0.0
2018-Apr-03 15:30N 37°57' E 023°37'0 0.0
2018-Apr-03 15:00N 37°57' E 023°37'0 0.0
2018-Apr-03 14:30N 37°57' E 023°37'0 0.0
2018-Apr-03 14:00N 37°57' E 023°37'0 0.0
2018-Apr-03 13:30N 37°57' E 023°37'0 0.0
2018-Apr-03 13:01N 37°57' E 023°37'0 0.0
2018-Apr-03 12:30N 37°57' E 023°37'0 0.0
2018-Apr-03 12:00N 37°57' E 023°37'0 0.0
2018-Apr-03 11:30N 37°57' E 023°37'0 0.0
2018-Apr-03 11:00N 37°57' E 023°37'0 0.0
2018-Apr-03 10:30N 37°57' E 023°37'0 0.0
2018-Apr-03 10:00N 37°57' E 023°37'0 0.0
2018-Apr-03 09:30N 37°57' E 023°37'0 0.0
2018-Apr-03 08:59N 37°57' E 023°37'0 0.0
2018-Apr-03 08:30N 37°57' E 023°37'0 0.0
2018-Apr-03 08:00N 37°57' E 023°37'0 0.0
2018-Apr-03 07:31N 37°57' E 023°37'0 0.0
2018-Apr-03 07:00N 37°57' E 023°37'0 0.0
2018-Apr-03 06:30N 37°57' E 023°37'0 0.0
2018-Apr-03 06:00N 37°57' E 023°37'0 0.0
2018-Apr-03 05:30N 37°57' E 023°37'0 0.0
2018-Apr-03 05:00N 37°57' E 023°37'0 0.0
2018-Apr-03 04:30N 37°57' E 023°37'3 5.4
2018-Apr-03 04:00N 37°56' E 023°34'4 0.4
2018-Apr-02 17:41N 37°52' E 023°33'1 8.1
2018-Apr-02 17:31N 37°53' E 023°34'4 7.8
2018-Apr-02 17:00N 37°57' E 023°36'1 0.1
2018-Apr-02 07:24N 37°57' E 023°37'0 0.0
2018-Apr-02 07:00N 37°57' E 023°37'0 0.0
2018-Apr-02 06:30N 37°57' E 023°37'0 0.0
2018-Apr-02 06:00N 37°57' E 023°37'0 0.0
2018-Apr-02 05:30N 37°57' E 023°37'0 0.0
2018-Apr-02 05:00N 37°57' E 023°37'0 0.0
2018-Apr-02 04:30N 37°57' E 023°37'0 0.0
2018-Apr-02 04:00N 37°57' E 023°37'0 0.0
2018-Apr-02 03:30N 37°57' E 023°37'0 0.0
2018-Apr-02 03:00N 37°57' E 023°37'0 0.0
2018-Apr-02 02:30N 37°57' E 023°37'0 0.0
2018-Apr-02 02:00N 37°57' E 023°37'0 0.0
2018-Apr-02 01:30N 37°57' E 023°37'0 0.0
2018-Apr-02 01:00N 37°57' E 023°37'0 0.0
2018-Apr-02 00:30N 37°57' E 023°37'0 0.0
2018-Apr-02 00:00N 37°57' E 023°37'0 0.0
2018-Apr-01 23:30N 37°57' E 023°37'0 0.0
2018-Apr-01 23:00N 37°57' E 023°37'0 0.0
2018-Apr-01 22:30N 37°57' E 023°37'0 0.0
2018-Apr-01 22:00N 37°57' E 023°37'0 0.0
2018-Apr-01 21:30N 37°57' E 023°37'0 0.0
2018-Apr-01 21:00N 37°57' E 023°37'0 0.0
2018-Apr-01 20:30N 37°57' E 023°37'0 0.0
2018-Apr-01 20:00N 37°57' E 023°37'0 0.0
2018-Apr-01 19:30N 37°57' E 023°37'0 0.0
2018-Apr-01 19:00N 37°57' E 023°37'0 0.0
2018-Apr-01 18:30N 37°57' E 023°37'0 0.0
2018-Apr-01 18:00N 37°57' E 023°37'0 0.0
2018-Apr-01 17:30N 37°57' E 023°37'0 0.0
2018-Apr-01 17:00N 37°57' E 023°37'0 0.0
2018-Apr-01 16:30N 37°57' E 023°37'0 0.0
2018-Apr-01 16:00N 37°57' E 023°37'0 0.0
2018-Apr-01 15:30N 37°57' E 023°37'0 0.0
2018-Apr-01 15:00N 37°57' E 023°37'0 0.0
2018-Apr-01 14:30N 37°57' E 023°37'0 0.0
2018-Apr-01 14:00N 37°57' E 023°37'0 0.0
2018-Apr-01 13:30N 37°57' E 023°37'0 0.0
2018-Apr-01 13:00N 37°57' E 023°37'0 0.0
2018-Apr-01 12:30N 37°57' E 023°37'0 0.0
2018-Apr-01 12:00N 37°57' E 023°37'0 0.0
2018-Apr-01 11:30N 37°57' E 023°37'0 0.0
2018-Apr-01 11:00N 37°57' E 023°37'  

Dump ship's entire track history